x

Central Gulf Of Alaska - 265nm West Of Cape Ommaney, Akk (46085) Wave Buoy

12:50pm - Wed 29th Jul 2015 All times are UTC.

  • Sig Wave height 4.6ft
  • Peak Period 8s
  • Average Period 6s
  • Wind
    9mph, 11mph gusts
  • Sea Temp 56°f
  • Air Temp 55°f
  • Sea Pressure 1017.5mb

More Historic Weather Station data

Upgrade to MSW Pro to gain access to the past 30 days of data for over 8000 Wavebouys and Weather Stations around the globe.

Join Pro

Comparision Forecast

View Surf forecast
   
Wed 07/29 12:50pm 4.5ft 8s 6s 9 11 mph 1017.5mb 56f 55f
11:50am 4.5ft 8s 5s 9 11 mph 1017.4mb 56f 55f
10:50am 4.5ft 8s 5s 11 13 mph 1017.3mb 56f 56f
9:50am 4.5ft 8s 5s 13 16 mph 1017.4mb 57f 55f
8:50am 5ft 8s 5s 16 18 mph 1017.1mb 57f 55f
7:50am 5ft 8s 5s 16 18 mph 1017.1mb 57f 55f
6:50am 4.5ft 8s 5s 16 18 mph 1016.8mb 57f 55f
5:50am 5ft 8s 5s 16 18 mph 1016.5mb 57f 55f
4:50am 5ft 8s 5s 16 20 mph 1016.2mb 57f 55f
3:50am 5ft 7s 5s 13 16 mph 1016.1mb 57f 54f
2:50am 5ft 8s 5s 16 18 mph 1015.9mb 57f 54f
1:50am 5ft 7s 5s 18 20 mph 1015.8mb 57f 55f
12:50am 5ft 8s 5s 18 20 mph 1015.5mb 56f 55f
Tue 07/28 11:50pm 5ft 7s 5s 18 22 mph 1015.3mb 56f 55f
10:50pm 5.5ft 8s 5s 20 22 mph 1015mb 57f 55f
9:50pm 5.5ft 8s 5s 18 22 mph 1014.6mb 57f 55f
7:50pm 6ft 7s 5s 20 22 mph 1013.7mb 57f 55f
6:50pm 5.5ft 8s 5s 20 22 mph 1013.5mb 57f 54f
5:50pm 6ft 8s 5s 18 22 mph 1013.3mb 57f 54f
4:50pm 5.5ft 7s 5s 18 22 mph 1013.1mb 57f 53f
3:50pm 6ft 8s 5s 16 20 mph 1012.8mb 57f 55f
2:50pm 5.5ft 8s 5s 18 20 mph 1012.5mb 57f 55f
1:50pm 5ft 8s 5s 16 18 mph 1012.3mb 57f 55f
12:50pm 5ft 7s 5s 16 20 mph 1012.1mb 57f 55f
11:50am 5.5ft 7s 5s 18 20 mph 1012mb 57f 55f
10:50am 6ft 7s 5s 20 22 mph 1011.8mb 57f 55f
9:50am 6ft 9s 5s 18 20 mph 1011.6mb 57f 56f
8:50am 6ft 7s 5s 16 18 mph 1011.4mb 57f 55f
7:50am 5.5ft 8s 5s 20 25 mph 1011mb 57f 55f
6:50am 5ft 8s 5s 18 22 mph 1010.7mb 57f 56f
5:50am 5.5ft 8s 5s 16 20 mph 1010.4mb 57f 55f
4:50am 5.5ft 7s 5s 16 20 mph 1010.1mb 57f 55f
3:50am 6ft 9s 5s 18 20 mph 1009.8mb 57f 56f
2:50am 5.5ft 9s 5s 16 20 mph 1009.7mb 57f 55f
1:50am 6ft 9s 5s 16 20 mph 1009.6mb 57f 56f
12:50am 5.5ft 7s 5s 16 20 mph 1009.3mb 57f 56f
Mon 07/27 11:50pm 5ft 9s 5s 18 22 mph 1008.9mb 57f 56f
10:50pm 5.5ft 8s 5s 20 22 mph 1008.1mb 57f 55f
9:50pm 5ft 9s 5s 18 22 mph 1007.3mb 57f 54f
8:50pm 5ft 10s 6s 16 20 mph 1006.5mb 57f 54f
7:50pm 5.5ft 10s 6s 11 13 mph 1006.3mb 57f 54f
6:50pm 6ft 10s 6s 9 13 mph 1006.2mb 57f 54f
5:50pm 6ft 10s 6s 9 11 mph 1006.5mb 57f 54f
4:50pm 6ft 9s 6s 9
mph
1006.8mb 56f 54f
3:50pm 6.5ft 8s 6s 9 11 mph 1007.5mb 56f 54f
2:50pm 7ft 10s 6s 9 11 mph 1008.1mb 56f 54f
1:50pm 6.5ft 9s 6s 11 13 mph 1008.7mb 56f 54f
12:50pm 6.5ft 8s 6s 13 18 mph 1009.4mb 57f 54f
11:50am 6.5ft 10s 6s 13 18 mph 1009.8mb 57f 54f
10:50am 7ft 10s 6s 16 18 mph 1010.4mb 57f 55f
9:50am 7ft 10s 6s 18 20 mph 1010.7mb 57f 54f
8:50am 6.5ft 9s 6s 18 22 mph 1010.9mb 57f 55f
7:50am 7ft 9s 6s 16 18 mph 1011mb 57f 55f
6:50am 7ft 9s 6s 20 22 mph 1011mb 57f 55f
5:50am 7.5ft 9s 6s 18 22 mph 1010.9mb 57f 55f
4:50am 7.5ft 8s 6s 18 22 mph 1010.9mb 57f 55f
3:50am 7.5ft 9s 6s 22 25 mph 1011mb 57f 55f
2:50am 8ft 8s 6s 18 22 mph 1011mb 57f 55f
1:50am 7ft 8s 5s 20 22 mph 1011.2mb 57f 56f
12:50am 8ft 8s 5s 22 25 mph 1011.2mb 57f 56f
Sun 07/26 11:50pm 7ft 7s 5s 22 27 mph 1011.4mb 57f 56f
10:50pm 7ft 8s 5s 20 25 mph 1011.4mb 57f 56f
9:50pm 7ft 8s 5s 20 22 mph 1011.3mb 57f 55f
8:50pm 7ft 8s 5s 22 27 mph 1011.2mb 57f 55f
7:50pm 7ft 7s 5s 22 25 mph 1011mb 57f 55f
6:50pm 7ft 7s 5s 22 29 mph 1010.9mb 57f 55f
5:50pm 7ft 7s 5s 25 29 mph 1010.8mb 57f 55f
4:50pm 7ft 7s 5s 22 27 mph 1010.7mb 57f 55f
3:50pm 6.5ft 6s 5s 22 25 mph 1010.9mb 57f 55f
2:50pm 6.5ft 6s 5s 25 29 mph 1011.1mb 57f 54f
1:50pm 6ft 6s 5s 25 31 mph 1011.5mb 57f 54f
12:50pm 6ft 8s 5s 25 29 mph 1012.1mb 57f 55f
11:50am 5ft 9s 5s 22 25 mph 1012.9mb 57f 55f
10:50am 5ft 8s 5s 22 27 mph 1013.6mb 57f 55f
9:50am 5ft 8s 5s 20 22 mph 1014.4mb 57f 55f
8:50am 5ft 9s 5s 18 20 mph 1015mb 57f 55f
7:50am 5ft 10s 5s 18 20 mph 1015.4mb 57f 55f
6:50am 4.5ft 9s 5s 16 20 mph 1015.7mb 57f 55f
5:50am 5ft 9s 5s 18 20 mph 1016mb 57f 55f
4:50am 5ft 8s 5s 18 20 mph 1016.3mb 57f 55f
3:50am 5ft 7s 5s 16 20 mph 1016.6mb 57f 55f
2:50am 5ft 8s 5s 16 18 mph 1016.9mb 57f 55f
1:50am 5ft 8s 6s 16 20 mph 1017.2mb 57f 54f
12:50am 4.5ft 7s 6s 16 18 mph 1017.4mb 57f 55f
Sat 07/25 11:50pm 5ft 8s 6s 16 18 mph 1017.6mb 57f 55f
10:50pm 4.5ft 8s 6s 16 18 mph 1017.5mb 57f 55f
9:50pm 5ft 8s 6s 11 16 mph 1017.4mb 57f 54f
8:50pm 5ft 8s 6s 13
mph
1017.2mb 57f 54f
7:50pm 4.5ft 8s 5s 11 13 mph 1017.1mb 56f 54f
6:50pm 5ft 9s 6s 11 13 mph 1016.7mb 56f 54f
5:50pm 5ft 7s 6s 11 16 mph 1016.3mb 56f 55f
4:50pm 5ft 9s 5s 13 16 mph 1015.8mb 57f 55f
3:50pm 5.5ft 8s 6s 11 13 mph 1015.3mb 57f 56f
2:50pm 6ft 9s 6s 9 13 mph 1014.9mb 57f 56f